createdAt,value
2022-12-01T00:00:47.125Z,102944.78
2022-12-01T00:03:17.453Z,102927.22
2022-12-01T00:05:47.744Z,102920.19
2022-12-01T00:08:19.814Z,102923.81
2022-12-01T00:10:49.892Z,102941.41
2022-12-01T00:13:20.116Z,102911.06
2022-12-01T00:15:50.279Z,102938.03
2022-12-01T00:18:20.381Z,102936.31
2022-12-01T00:20:56.191Z,102945.81
2022-12-01T00:23:26.340Z,102929.06
2022-12-01T00:26:03.024Z,102945.78
2022-12-01T00:28:33.414Z,102937.13
2022-12-01T00:31:07.943Z,102931.47
2022-12-01T00:33:39.198Z,102931.41
2022-12-01T00:36:09.645Z,102940.28
2022-12-01T00:38:39.991Z,102934.06
2022-12-01T00:41:10.313Z,102921.88
2022-12-01T00:43:40.676Z,102915.00
2022-12-01T00:46:10.862Z,102914.31
2022-12-01T00:48:41.023Z,102932.44
2022-12-01T00:51:11.063Z,102916.56
2022-12-01T00:53:41.185Z,102914.22
2022-12-01T00:56:11.203Z,102919.53
2022-12-01T00:58:41.309Z,102923.09
2022-12-01T01:01:11.536Z,102916.72
2022-12-01T01:03:41.849Z,102922.94
2022-12-01T01:06:13.211Z,102925.53
2022-12-01T01:08:43.275Z,102906.06
2022-12-01T01:11:13.404Z,102874.13
2022-12-01T01:13:43.480Z,102923.72
2022-12-01T01:16:19.961Z,102905.91
2022-12-01T01:18:50.159Z,102919.16
2022-12-01T01:21:22.271Z,102927.03
2022-12-01T01:23:53.688Z,102924.66
2022-12-01T01:26:30.442Z,102922.84
2022-12-01T01:29:03.651Z,102917.69
2022-12-01T01:31:34.670Z,102921.09
2022-12-01T01:34:05.082Z,102919.38
2022-12-01T01:36:35.234Z,102922.59
2022-12-01T01:39:06.601Z,102910.91
2022-12-01T01:41:36.764Z,102913.66
2022-12-01T01:44:44.051Z,102926.00
2022-12-01T01:47:15.584Z,102923.19
2022-12-01T01:49:45.981Z,102931.41
2022-12-01T01:52:17.726Z,102919.94
2022-12-01T01:54:51.398Z,102923.50
2022-12-01T01:57:26.850Z,102928.84
2022-12-01T02:00:08.027Z,102934.28
2022-12-01T02:02:40.957Z,102935.25
2022-12-01T02:05:32.860Z,102926.25
2022-12-01T02:08:04.401Z,102942.84
2022-12-01T02:11:03.777Z,102939.44
2022-12-01T02:14:06.450Z,102941.88
2022-12-01T02:17:01.953Z,102934.88
2022-12-01T02:20:09.531Z,102940.66
2022-12-01T02:22:40.090Z,102937.94
2022-12-01T02:25:47.077Z,102942.75
2022-12-01T02:28:45.139Z,102939.69
2022-12-01T02:31:22.790Z,102931.84
2022-12-01T02:34:12.573Z,102923.06
2022-12-01T02:37:10.297Z,102934.63
2022-12-01T02:39:52.449Z,102902.81
2022-12-01T02:42:53.832Z,102931.13
2022-12-01T02:45:49.240Z,102928.38
2022-12-01T02:48:28.615Z,102928.53
2022-12-01T02:51:02.902Z,102930.09
2022-12-01T02:53:34.165Z,102929.13
2022-12-01T02:56:10.035Z,102930.72
2022-12-01T02:58:40.205Z,102921.47
2022-12-01T03:01:34.127Z,102926.06
2022-12-01T03:04:32.175Z,102899.63
2022-12-01T03:07:27.306Z,102927.13
2022-12-01T03:10:06.516Z,102923.63
2022-12-01T03:13:00.761Z,102925.91
2022-12-01T03:15:44.494Z,102909.13
2022-12-01T03:18:37.973Z,102923.94
2022-12-01T03:21:31.989Z,102925.03
2022-12-01T03:24:09.202Z,102899.69
2022-12-01T03:26:42.329Z,102890.81
2022-12-01T03:29:20.744Z,102918.06
2022-12-01T03:31:55.326Z,102917.00
2022-12-01T03:34:35.565Z,102919.44
2022-12-01T03:37:13.893Z,102917.16
2022-12-01T03:39:48.361Z,102920.38
2022-12-01T03:42:37.017Z,102905.44
2022-12-01T03:45:13.411Z,102916.66
2022-12-01T03:47:43.921Z,102912.94
2022-12-01T03:50:16.525Z,102911.69
2022-12-01T03:53:00.199Z,102926.78
2022-12-01T03:55:35.951Z,102926.72
2022-12-01T03:58:17.354Z,102918.28
2022-12-01T04:00:50.198Z,102906.72
2022-12-01T04:03:24.285Z,102927.97
2022-12-01T04:05:54.863Z,102915.94
2022-12-01T04:08:25.344Z,102920.53
2022-12-01T04:10:55.502Z,102893.22
2022-12-01T04:13:26.738Z,102919.81
2022-12-01T04:15:56.926Z,102894.09
2022-12-01T04:18:27.107Z,102921.66
2022-12-01T04:20:57.177Z,102903.38
2022-12-01T04:23:45.775Z,102916.25
2022-12-01T04:26:16.134Z,102914.59
2022-12-01T04:28:46.303Z,102923.06
2022-12-01T04:31:16.453Z,102903.78
2022-12-01T04:33:46.628Z,102912.75
2022-12-01T04:36:16.839Z,102920.06
2022-12-01T04:38:46.942Z,102923.56
2022-12-01T04:41:17.308Z,102905.16
2022-12-01T04:43:47.537Z,102928.03
2022-12-01T04:46:17.806Z,102919.44
2022-12-01T04:48:48.115Z,102886.63
2022-12-01T04:51:18.265Z,102924.94
2022-12-01T04:53:49.858Z,102926.78
2022-12-01T04:56:20.159Z,102920.75
2022-12-01T04:58:50.748Z,102915.66
2022-12-01T05:01:20.982Z,102911.06
2022-12-01T05:03:51.345Z,102914.84
2022-12-01T05:06:25.346Z,102921.63
2022-12-01T05:09:01.054Z,102911.16
2022-12-01T05:11:32.183Z,102911.47
2022-12-01T05:14:02.263Z,102916.56
2022-12-01T05:16:33.524Z,102915.75
2022-12-01T05:19:24.298Z,102925.53
2022-12-01T05:21:54.446Z,102935.00
2022-12-01T05:24:24.558Z,102928.09
2022-12-01T05:26:54.654Z,102929.84
2022-12-01T05:29:24.790Z,102927.28
2022-12-01T05:31:55.018Z,102921.16
2022-12-01T05:34:25.167Z,102927.19
2022-12-01T05:36:55.217Z,102933.31
2022-12-01T05:39:25.372Z,102931.38
2022-12-01T05:41:55.463Z,102924.69
2022-12-01T05:44:25.527Z,102935.84
2022-12-01T05:46:55.640Z,102914.72
2022-12-01T05:49:25.736Z,102934.84
2022-12-01T05:51:55.905Z,102916.13
2022-12-01T05:54:25.972Z,102927.66
2022-12-01T05:56:56.108Z,102936.63
2022-12-01T05:59:26.734Z,102938.41
2022-12-01T06:01:56.996Z,102941.00
2022-12-01T06:04:27.174Z,102941.63
2022-12-01T06:06:57.301Z,102940.66
2022-12-01T06:09:27.456Z,102945.09
2022-12-01T06:11:57.538Z,102950.16
2022-12-01T06:14:27.677Z,102931.06
2022-12-01T06:16:57.937Z,102936.94
2022-12-01T06:19:28.147Z,102930.63
2022-12-01T06:21:58.734Z,102945.00
2022-12-01T06:24:28.919Z,102945.91
2022-12-01T06:26:59.307Z,102937.97
2022-12-01T06:29:29.371Z,102944.00
2022-12-01T06:31:59.567Z,102945.72
2022-12-01T06:34:29.604Z,102939.59
2022-12-01T06:36:59.755Z,102943.78
2022-12-01T06:39:29.954Z,102953.63
2022-12-01T06:42:00.002Z,102952.00
2022-12-01T06:44:30.181Z,102952.66
2022-12-01T06:47:00.534Z,102959.59
2022-12-01T06:49:30.970Z,102948.94
2022-12-01T06:52:01.283Z,102963.22
2022-12-01T06:54:31.557Z,102943.13
2022-12-01T06:57:01.657Z,102957.16
2022-12-01T06:59:32.238Z,102957.25
2022-12-01T07:02:03.289Z,102956.38
2022-12-01T07:04:33.749Z,102951.06
2022-12-01T07:07:05.830Z,102955.66
2022-12-01T07:09:35.980Z,102957.50
2022-12-01T07:12:06.581Z,102959.34
2022-12-01T07:14:36.915Z,102947.91
2022-12-01T07:17:07.029Z,102960.25
2022-12-01T07:19:37.248Z,102949.59
2022-12-01T07:22:07.363Z,102951.56
2022-12-01T07:24:37.795Z,102955.34
2022-12-01T07:27:07.943Z,102955.41
2022-12-01T07:29:38.012Z,102936.00
2022-12-01T07:32:08.222Z,102942.91
2022-12-01T07:34:38.656Z,102953.09
2022-12-01T07:37:08.891Z,102952.34
2022-12-01T07:39:39.125Z,102947.13
2022-12-01T07:42:09.279Z,102938.25
2022-12-01T07:44:39.587Z,102967.53
2022-12-01T07:47:09.695Z,102967.53
2022-12-01T07:49:39.848Z,102969.25
2022-12-01T07:52:09.975Z,102963.88
2022-12-01T07:54:40.059Z,102956.00
2022-12-01T07:57:10.331Z,102977.28
2022-12-01T07:59:40.695Z,102957.03
2022-12-01T08:02:11.628Z,102975.63
2022-12-01T08:04:43.040Z,102965.00
2022-12-01T08:07:13.108Z,102964.31
2022-12-01T08:09:45.081Z,102967.16
2022-12-01T08:12:15.207Z,102966.72
2022-12-01T08:14:45.372Z,102972.84
2022-12-01T08:17:15.479Z,102964.94
2022-12-01T08:19:45.528Z,102973.03
2022-12-01T08:22:15.666Z,102944.22
2022-12-01T08:24:45.812Z,102965.19
2022-12-01T08:27:15.899Z,102970.44
2022-12-01T08:29:46.107Z,102955.59
2022-12-01T08:32:17.570Z,102952.19
2022-12-01T08:34:53.158Z,102956.97
2022-12-01T08:37:23.757Z,102958.09
2022-12-01T08:39:53.905Z,102971.47
2022-12-01T08:42:24.059Z,102975.75
2022-12-01T08:44:54.258Z,102972.28
2022-12-01T08:47:24.404Z,102975.13
2022-12-01T08:49:54.984Z,102966.31
2022-12-01T08:52:25.088Z,102974.47
2022-12-01T08:54:55.182Z,102975.59
2022-12-01T08:57:25.382Z,102971.63
2022-12-01T08:59:55.553Z,102972.66
2022-12-01T09:02:26.024Z,102949.91
2022-12-01T09:04:56.228Z,102952.91
2022-12-01T09:07:26.968Z,102978.31
2022-12-01T09:09:57.411Z,102965.41
2022-12-01T09:12:29.229Z,102972.50
2022-12-01T09:14:59.648Z,102967.44
2022-12-01T09:17:29.748Z,102965.88
2022-12-01T09:23:40.931Z,102951.19
2022-12-01T09:26:13.841Z,102955.06
2022-12-01T09:28:45.208Z,102951.56
2022-12-01T09:31:16.772Z,102943.31
2022-12-01T09:33:47.532Z,102938.78
2022-12-01T09:36:17.678Z,102937.16
2022-12-01T09:38:47.759Z,102942.72
2022-12-01T09:41:43.062Z,102955.44
2022-12-01T09:44:51.500Z,102959.06
2022-12-01T09:47:26.310Z,102956.53
2022-12-01T09:50:01.576Z,102951.44
2022-12-01T09:52:42.690Z,102958.38
2022-12-01T09:55:15.605Z,102954.91
2022-12-01T09:57:50.845Z,102944.22
2022-12-01T10:00:27.413Z,102953.38
2022-12-01T10:03:01.220Z,102940.16
2022-12-01T10:06:02.921Z,102946.88
2022-12-01T10:08:38.189Z,102943.09
2022-12-01T10:11:44.749Z,102946.81
2022-12-01T10:14:19.963Z,102953.09
2022-12-01T10:17:12.390Z,102949.91
2022-12-01T10:20:04.316Z,102948.88
2022-12-01T10:23:14.634Z,102944.38
2022-12-01T10:25:58.167Z,102935.56
2022-12-01T10:29:03.784Z,102932.94
2022-12-01T10:32:02.567Z,102915.13
2022-12-01T10:34:37.781Z,102938.16
2022-12-01T10:37:20.308Z,102938.97
2022-12-01T10:39:53.301Z,102937.28
2022-12-01T10:42:56.149Z,102932.09
2022-12-01T10:45:28.941Z,102895.03
2022-12-01T10:48:11.216Z,102931.31
2022-12-01T10:50:53.575Z,102918.22
2022-12-01T10:53:23.863Z,102928.13
2022-12-01T10:56:21.335Z,102925.63
2022-12-01T10:58:59.721Z,102922.28
2022-12-01T11:01:36.040Z,102903.00
2022-12-01T11:04:20.871Z,102910.25
2022-12-01T11:06:51.710Z,102921.84
2022-12-01T11:09:26.893Z,102909.59
2022-12-01T11:12:01.810Z,102916.16
2022-12-01T11:14:53.432Z,102919.84
2022-12-01T11:17:32.205Z,102913.88
2022-12-01T11:20:38.739Z,102915.63
2022-12-01T11:23:30.036Z,102912.19
2022-12-01T11:26:12.609Z,102909.63
2022-12-01T11:28:54.479Z,102896.34
2022-12-01T11:31:47.561Z,102900.09
2022-12-01T11:34:20.127Z,102874.19
2022-12-01T11:36:59.108Z,102869.53
2022-12-01T11:39:41.809Z,102903.06
2022-12-01T11:42:14.809Z,102906.13
2022-12-01T11:44:55.753Z,102901.38
2022-12-01T11:47:28.031Z,102901.16
2022-12-01T11:50:03.369Z,102904.72
2022-12-01T11:52:36.892Z,102901.00
2022-12-01T11:55:20.793Z,102899.59
2022-12-01T11:57:54.366Z,102907.56
2022-12-01T12:00:27.562Z,102902.06
2022-12-01T12:03:33.685Z,102902.78
2022-12-01T12:06:39.513Z,102899.47
2022-12-01T12:09:40.129Z,102900.56
2022-12-01T12:12:43.917Z,102912.75
2022-12-01T12:15:19.309Z,102891.72
2022-12-01T12:18:16.874Z,102904.34
2022-12-01T12:21:17.450Z,102875.44
2022-12-01T12:24:17.259Z,102899.31
2022-12-01T12:27:17.012Z,102869.22
2022-12-01T12:30:26.336Z,102895.63
2022-12-01T12:33:26.668Z,102905.38
2022-12-01T12:36:13.857Z,102893.94
2022-12-01T12:39:00.925Z,102877.38
2022-12-01T12:41:43.351Z,102881.75
2022-12-01T12:44:36.586Z,102874.41
2022-12-01T12:47:28.572Z,102879.25
2022-12-01T12:50:12.200Z,102874.00
2022-12-01T12:52:47.785Z,102879.25
2022-12-01T12:55:30.472Z,102876.81
2022-12-01T12:58:24.301Z,102881.94
2022-12-01T13:01:21.373Z,102859.63
2022-12-01T13:04:07.686Z,102874.94
2022-12-01T13:06:50.160Z,102870.31
2022-12-01T13:09:45.695Z,102872.13
2022-12-01T13:12:24.221Z,102864.63
2022-12-01T13:15:09.410Z,102868.56
2022-12-01T13:17:44.009Z,102867.91
2022-12-01T13:20:19.046Z,102853.63
2022-12-01T13:22:51.157Z,102832.53
2022-12-01T13:25:34.548Z,102843.66
2022-12-01T13:28:14.295Z,102866.03
2022-12-01T13:30:58.462Z,102866.84
2022-12-01T13:33:29.497Z,102819.75
2022-12-01T13:36:38.262Z,102845.84
2022-12-01T13:38:56.686Z,102855.66
2022-12-01T13:41:32.372Z,102825.84
2022-12-01T13:44:21.008Z,102852.66
2022-12-01T13:46:57.104Z,102851.47
2022-12-01T13:49:40.925Z,102838.16
2022-12-01T13:52:23.328Z,102845.50
2022-12-01T13:55:08.520Z,102849.56
2022-12-01T13:57:56.447Z,102850.22
2022-12-01T14:00:32.763Z,102836.19
2022-12-01T14:03:19.574Z,102847.53
2022-12-01T14:05:53.388Z,102851.09
2022-12-01T14:08:32.955Z,102833.66
2022-12-01T14:11:08.145Z,102814.09
2022-12-01T14:14:04.299Z,102832.88
2022-12-01T14:17:03.014Z,102839.97
2022-12-01T14:19:39.072Z,102836.16
2022-12-01T14:22:39.833Z,102841.16
2022-12-01T14:25:21.935Z,102841.50
2022-12-01T14:27:55.076Z,102842.31
2022-12-01T14:30:45.215Z,102844.63
2022-12-01T14:33:40.168Z,102851.13
2022-12-01T14:36:22.825Z,102831.97
2022-12-01T14:39:00.744Z,102855.16
2022-12-01T14:41:40.485Z,102853.53
2022-12-01T14:44:36.331Z,102854.66
2022-12-01T14:47:18.521Z,102851.28
2022-12-01T14:50:14.681Z,102844.19
2022-12-01T14:52:49.603Z,102844.41
2022-12-01T14:55:28.874Z,102823.44
2022-12-01T14:58:06.345Z,102843.59
2022-12-01T15:00:38.994Z,102820.53
2022-12-01T15:03:14.382Z,102834.72
2022-12-01T15:05:44.714Z,102839.28
2022-12-01T15:08:43.434Z,102817.16
2022-12-01T15:11:25.700Z,102835.69
2022-12-01T15:13:57.240Z,102832.81
2022-12-01T15:16:32.523Z,102841.66
2022-12-01T15:19:02.744Z,102838.69
2022-12-01T15:21:33.007Z,102841.03
2022-12-01T15:24:21.322Z,102823.47
2022-12-01T15:26:57.832Z,102825.94
2022-12-01T15:29:33.699Z,102831.00
2022-12-01T15:32:11.711Z,102821.09
2022-12-01T15:34:44.723Z,102826.16
2022-12-01T15:37:21.138Z,102817.16
2022-12-01T15:43:03.898Z,102829.00
2022-12-01T15:45:51.380Z,102785.50
2022-12-01T15:48:34.626Z,102823.38
2022-12-01T15:51:10.949Z,102825.84
2022-12-01T15:53:48.160Z,102814.38
2022-12-01T15:56:32.316Z,102811.59
2022-12-01T15:59:14.677Z,102821.38
2022-12-01T16:01:45.785Z,102829.09
2022-12-01T16:04:25.475Z,102829.16
2022-12-01T16:07:09.414Z,102825.84
2022-12-01T16:09:40.792Z,102824.25
2022-12-01T16:12:17.025Z,102820.88
2022-12-01T16:14:56.452Z,102822.72
2022-12-01T16:17:45.143Z,102822.81
2022-12-01T16:20:27.304Z,102815.72
2022-12-01T16:23:01.227Z,102820.00
2022-12-01T16:25:37.781Z,102806.78
2022-12-01T16:28:21.594Z,102809.34
2022-12-01T16:30:53.151Z,102818.34
2022-12-01T16:33:26.758Z,102813.94
2022-12-01T16:35:59.772Z,102814.66
2022-12-01T16:38:30.769Z,102784.56
2022-12-01T16:41:02.524Z,102775.75
2022-12-01T16:43:32.715Z,102805.94
2022-12-01T16:46:06.388Z,102809.44
2022-12-01T16:48:37.883Z,102806.69
2022-12-01T16:51:08.299Z,102810.97
2022-12-01T16:53:38.494Z,102804.84
2022-12-01T16:56:13.066Z,102808.16
2022-12-01T16:58:44.978Z,102786.94
2022-12-01T17:01:15.309Z,102810.56
2022-12-01T17:03:45.609Z,102810.50
2022-12-01T17:06:18.590Z,102813.06
2022-12-01T17:08:49.131Z,102818.31
2022-12-01T17:11:19.256Z,102814.13
2022-12-01T17:13:49.443Z,102803.81
2022-12-01T17:16:19.677Z,102809.84
2022-12-01T17:18:49.937Z,102819.03
2022-12-01T17:21:20.179Z,102797.97
2022-12-01T17:23:50.388Z,102816.69
2022-12-01T17:26:23.090Z,102804.19
2022-12-01T17:28:56.266Z,102813.38
2022-12-01T17:31:26.879Z,102811.59
2022-12-01T17:33:57.396Z,102818.69
2022-12-01T17:36:27.556Z,102801.84
2022-12-01T17:38:58.889Z,102813.53
2022-12-01T17:41:32.682Z,102795.59
2022-12-01T17:44:04.488Z,102813.47
2022-12-01T17:46:34.693Z,102804.53
2022-12-01T17:49:10.026Z,102803.59
2022-12-01T17:51:41.137Z,102786.88
2022-12-01T17:54:11.200Z,102815.47
2022-12-01T17:56:41.425Z,102801.22
2022-12-01T17:59:11.897Z,102783.56
2022-12-01T18:01:43.610Z,102788.00
2022-12-01T18:04:14.095Z,102813.63
2022-12-01T18:06:46.021Z,102812.88
2022-12-01T18:09:19.559Z,102809.41
2022-12-01T18:11:49.792Z,102810.22
2022-12-01T18:14:20.011Z,102804.91
2022-12-01T18:16:50.247Z,102804.09
2022-12-01T18:19:20.787Z,102808.59
2022-12-01T18:21:51.049Z,102815.59
2022-12-01T18:24:21.246Z,102797.91
2022-12-01T18:26:51.441Z,102804.16
2022-12-01T18:29:26.310Z,102799.50
2022-12-01T18:31:57.994Z,102819.75
2022-12-01T18:34:31.618Z,102796.69
2022-12-01T18:37:03.058Z,102817.16
2022-12-01T18:39:33.714Z,102833.59
2022-12-01T18:42:04.428Z,102817.16
2022-12-01T18:44:34.605Z,102815.47
2022-12-01T18:47:06.605Z,102819.78
2022-12-01T18:49:36.868Z,102813.53
2022-12-01T18:52:07.167Z,102818.19
2022-12-01T18:54:37.383Z,102801.34
2022-12-01T18:57:07.730Z,102802.31
2022-12-01T18:59:38.556Z,102808.59
2022-12-01T19:02:10.053Z,102807.13
2022-12-01T19:04:40.310Z,102811.59
2022-12-01T19:07:10.531Z,102794.09
2022-12-01T19:09:40.817Z,102802.69
2022-12-01T19:12:10.915Z,102796.44
2022-12-01T19:14:41.072Z,102815.59
2022-12-01T19:17:11.501Z,102794.25
2022-12-01T19:19:41.652Z,102812.97
2022-12-01T19:22:11.804Z,102820.84
2022-12-01T19:24:44.824Z,102819.97
2022-12-01T19:27:19.397Z,102824.41
2022-12-01T19:29:50.238Z,102805.97
2022-12-01T19:32:20.721Z,102813.03
2022-12-01T19:34:50.900Z,102798.03
2022-12-01T19:37:21.341Z,102813.84
2022-12-01T19:39:51.542Z,102816.50
2022-12-01T19:42:21.671Z,102814.72
2022-12-01T19:44:52.168Z,102798.03
2022-12-01T19:47:22.697Z,102811.41
2022-12-01T19:49:52.816Z,102812.16
2022-12-01T19:52:23.061Z,102809.72
2022-12-01T19:54:53.290Z,102810.63
2022-12-01T19:57:23.626Z,102809.66
2022-12-01T19:59:53.794Z,102806.09
2022-12-01T20:02:28.887Z,102815.03
2022-12-01T20:04:59.585Z,102818.28
2022-12-01T20:07:30.754Z,102825.19
2022-12-01T20:10:00.904Z,102802.81
2022-12-01T20:12:31.046Z,102806.44
2022-12-01T20:15:01.578Z,102821.91
2022-12-01T20:17:35.870Z,102820.66
2022-12-01T20:20:06.718Z,102822.34
2022-12-01T20:22:37.277Z,102812.44
2022-12-01T20:25:09.357Z,102821.88
2022-12-01T20:27:39.843Z,102815.00
2022-12-01T20:30:10.811Z,102798.09
2022-12-01T20:32:41.057Z,102811.56
2022-12-01T20:35:11.501Z,102825.47
2022-12-01T20:37:41.868Z,102819.19
2022-12-01T20:40:12.301Z,102817.41
2022-12-01T20:42:42.371Z,102820.94
2022-12-01T20:45:12.565Z,102812.91
2022-12-01T20:47:42.696Z,102824.25
2022-12-01T20:50:12.877Z,102820.56
2022-12-01T20:52:42.957Z,102810.72
2022-12-01T20:55:13.145Z,102811.47
2022-12-01T20:57:43.416Z,102820.00
2022-12-01T21:00:14.229Z,102827.72
2022-12-01T21:02:44.965Z,102817.97
2022-12-01T21:05:15.476Z,102812.00
2022-12-01T21:07:46.001Z,102819.19
2022-12-01T21:10:19.929Z,102820.00
2022-12-01T21:13:14.516Z,102813.94
2022-12-01T21:16:01.972Z,102830.78
2022-12-01T21:19:06.615Z,102831.84
2022-12-01T21:21:40.186Z,102827.19
2022-12-01T21:24:16.870Z,102810.56
2022-12-01T21:26:49.915Z,102828.84
2022-12-01T21:29:23.085Z,102833.31
2022-12-01T21:31:58.817Z,102794.53
2022-12-01T21:34:29.538Z,102812.44
2022-12-01T21:37:02.799Z,102815.16
2022-12-01T21:39:34.914Z,102792.22
2022-12-01T21:42:19.331Z,102816.88
2022-12-01T21:44:49.987Z,102828.16
2022-12-01T21:47:21.841Z,102833.31
2022-12-01T21:49:54.309Z,102815.47
2022-12-01T21:52:40.045Z,102826.13
2022-12-01T21:55:16.349Z,102830.53
2022-12-01T21:57:49.040Z,102824.09
2022-12-01T22:00:32.779Z,102818.03
2022-12-01T22:03:08.631Z,102821.84
2022-12-01T22:05:42.894Z,102838.47
2022-12-01T22:08:25.618Z,102836.75
2022-12-01T22:11:11.013Z,102803.94
2022-12-01T22:14:03.996Z,102829.56
2022-12-01T22:16:36.167Z,102813.84
2022-12-01T22:19:15.356Z,102830.63
2022-12-01T22:21:50.218Z,102826.22
2022-12-01T22:24:52.940Z,102811.53
2022-12-01T22:27:26.309Z,102818.38
2022-12-01T22:30:01.404Z,102815.72
2022-12-01T22:32:54.775Z,102810.25
2022-12-01T22:35:45.006Z,102822.66
2022-12-01T22:38:21.244Z,102817.59
2022-12-01T22:40:51.610Z,102821.09
2022-12-01T22:43:24.713Z,102820.22
2022-12-01T22:46:01.884Z,102773.34
2022-12-01T22:48:42.480Z,102799.84
2022-12-01T22:51:30.642Z,102803.63
2022-12-01T22:54:12.201Z,102804.50
2022-12-01T22:56:45.783Z,102792.34
2022-12-01T22:59:29.566Z,102797.50
2022-12-01T23:02:02.005Z,102792.03
2022-12-01T23:04:41.262Z,102776.06
2022-12-01T23:07:28.867Z,102799.75
2022-12-01T23:10:16.794Z,102792.59
2022-12-01T23:12:49.336Z,102788.97
2022-12-01T23:15:25.864Z,102792.59
2022-12-01T23:17:57.020Z,102782.53
2022-12-01T23:20:33.662Z,102790.91
2022-12-01T23:23:07.278Z,102782.78
2022-12-01T23:25:37.467Z,102791.63
2022-12-01T23:28:09.144Z,102788.06
2022-12-01T23:30:41.965Z,102792.59
2022-12-01T23:33:32.594Z,102798.09
2022-12-01T23:36:14.603Z,102792.84
2022-12-01T23:38:51.501Z,102788.41
2022-12-01T23:41:37.545Z,102794.53
2022-12-01T23:44:19.376Z,102793.63
2022-12-01T23:46:53.349Z,102793.56
2022-12-01T23:49:27.763Z,102792.75
2022-12-01T23:52:01.835Z,102784.13
2022-12-01T23:54:34.601Z,102778.00
2022-12-01T23:57:15.939Z,102765.28
2022-12-01T23:59:46.290Z,102779.56
